Time;durP1;ratioP1;P1;durP2;ratioP2;P2;SDS_P1;SDS_P2;PMS_P1;PMS_P2;Temp;Humidity;BMP_temperature;BMP_pressure;BME280_temperature;BME280_humidity;BME280_pressure;Samples;Min_cycle;Max_cycle;Signal;HPM_P1;HPM_P2
2022/08/06 00:02:23;;;;;;;1.88;1.00;;;;;;;23.26;31.62;102089.63;5022725;28;20045;-67
2022/08/06 00:04:56;;;;;;;2.70;1.20;;;;;;;23.23;31.32;102095.47;5008420;28;20069;-67
2022/08/06 00:07:24;;;;;;;2.53;1.30;;;;;;;23.18;31.94;102087.63;5031114;28;20049;-68
2022/08/06 00:09:58;;;;;;;2.78;1.02;;;;;;;23.16;31.90;102092.47;5027177;28;20044;-67
2022/08/06 00:12:29;;;;;;;3.25;1.05;;;;;;;23.12;31.64;102096.56;5028513;28;20045;-68
2022/08/06 00:15:05;;;;;;;1.85;1.10;;;;;;;23.10;31.87;102109.72;5027870;28;20045;-68
2022/08/06 00:17:42;;;;;;;1.92;1.00;;;;;;;23.06;31.74;102099.97;5020710;28;20105;-66
2022/08/06 00:20:11;;;;;;;1.88;1.05;;;;;;;23.02;31.59;102102.16;5024147;28;20033;-67
2022/08/06 00:22:57;;;;;;;3.42;1.10;;;;;;;22.97;31.59;102106.44;5040323;28;20072;-67
2022/08/06 00:25:24;;;;;;;1.67;0.95;;;;;;;22.95;32.17;102102.94;5026490;28;20131;-67
2022/08/06 00:27:53;;;;;;;2.80;1.00;;;;;;;22.91;32.16;102110.66;5023096;28;20140;-67
2022/08/06 00:30:21;;;;;;;3.20;1.30;;;;;;;22.87;32.34;102108.38;5034063;28;20404;-68
2022/08/06 00:32:52;;;;;;;1.58;0.98;;;;;;;22.86;31.96;102110.25;5027801;28;20056;-66
2022/08/06 00:35:21;;;;;;;2.53;1.10;;;;;;;22.83;31.92;102115.22;5026105;28;20055;-67
2022/08/06 00:37:51;;;;;;;2.13;1.00;;;;;;;22.77;32.29;102112.03;5028268;28;20052;-67
2022/08/06 00:40:27;;;;;;;2.38;1.08;;;;;;;22.75;31.99;102118.75;5030343;28;20049;-67
2022/08/06 00:42:56;;;;;;;2.30;1.00;;;;;;;22.70;32.38;102110.88;5040347;28;20049;-67
2022/08/06 00:45:24;;;;;;;2.38;1.10;;;;;;;22.68;32.06;102110.13;5032326;28;20206;-66
2022/08/06 00:47:54;;;;;;;2.83;1.17;;;;;;;22.68;32.14;102109.25;5028614;28;20076;-67
2022/08/06 00:50:31;;;;;;;2.20;1.08;;;;;;;22.63;32.41;102112.50;5023443;28;20047;-65
2022/08/06 00:53:00;;;;;;;2.15;1.10;;;;;;;22.62;32.57;102115.41;5030983;28;20377;-67
2022/08/06 00:55:30;;;;;;;1.88;1.08;;;;;;;22.59;32.36;102119.34;5045611;22;20043;-72
2022/08/06 00:58:04;;;;;;;1.52;0.90;;;;;;;22.56;32.73;102119.66;5009127;28;20042;-73
2022/08/06 01:00:39;;;;;;;1.90;1.00;;;;;;;22.53;32.25;102119.94;5025635;28;20068;-71
2022/08/06 01:03:19;;;;;;;2.00;1.00;;;;;;;22.52;32.56;102111.78;5034545;28;20060;-72
2022/08/06 01:06:07;;;;;;;2.20;1.13;;;;;;;22.46;32.85;102123.47;5034015;28;20577;-73
2022/08/06 01:08:55;;;;;;;2.33;1.10;;;;;;;22.43;33.08;102126.50;5034545;28;20049;-74
2022/08/06 01:11:24;;;;;;;1.67;1.00;;;;;;;22.41;33.25;102132.19;5037291;28;20569;-70
2022/08/06 01:13:54;;;;;;;2.08;0.98;;;;;;;22.37;32.93;102128.88;5044892;28;20056;-72
2022/08/06 01:16:38;;;;;;;1.50;1.00;;;;;;;22.37;33.05;102123.34;5052453;28;20129;-72
2022/08/06 01:19:32;;;;;;;3.60;1.10;;;;;;;22.33;33.57;102130.16;5047603;28;20049;-72
2022/08/06 01:22:43;;;;;;;1.75;0.90;;;;;;;22.28;33.29;102137.19;5055231;28;20055;-73
2022/08/06 01:25:34;;;;;;;3.50;1.20;;;;;;;22.25;33.16;102138.34;5050493;28;20060;-72
2022/08/06 01:28:21;;;;;;;1.88;1.00;;;;;;;22.22;33.37;102140.53;5050338;28;20148;-73
2022/08/06 01:31:03;;;;;;;1.58;0.95;;;;;;;22.20;33.43;102143.44;5036141;28;20052;-72
2022/08/06 01:33:38;;;;;;;2.65;1.15;;;;;;;22.16;33.02;102147.50;5034619;28;20405;-73
2022/08/06 01:36:12;;;;;;;2.88;1.20;;;;;;;22.11;33.74;102136.03;5054770;28;20512;-72
2022/08/06 01:38:47;;;;;;;3.15;1.00;;;;;;;22.09;33.30;102139.94;5049082;28;20045;-72
2022/08/06 01:41:41;;;;;;;4.22;1.15;;;;;;;22.02;33.51;102143.31;5054480;28;20128;-71
2022/08/06 01:44:33;;;;;;;2.28;1.05;;;;;;;22.01;33.71;102137.91;5050314;28;20132;-74
2022/08/06 01:47:04;;;;;;;2.13;1.20;;;;;;;21.97;33.71;102142.00;5050166;28;20037;-72
2022/08/06 01:49:47;;;;;;;1.90;1.00;;;;;;;21.92;33.71;102149.81;5060344;28;20084;-73
2022/08/06 01:52:33;;;;;;;2.28;1.10;;;;;;;21.90;33.27;102146.34;5052726;28;20326;-71
2022/08/06 01:55:06;;;;;;;3.13;1.27;;;;;;;21.89;33.33;102153.75;5057125;28;20501;-72
2022/08/06 01:57:39;;;;;;;2.03;1.10;;;;;;;21.86;33.94;102151.28;5050715;28;20053;-73
2022/08/06 02:00:29;;;;;;;2.20;1.20;;;;;;;21.82;33.96;102158.13;5055191;28;20076;-71
2022/08/06 02:03:00;;;;;;;3.53;1.52;;;;;;;21.81;34.08;102167.44;5054705;28;20045;-72
2022/08/06 02:05:31;;;;;;;2.58;1.23;;;;;;;21.76;34.10;102161.44;5053936;28;20509;-72
2022/08/06 02:08:15;;;;;;;2.40;1.20;;;;;;;21.76;34.25;102166.09;5052071;28;20067;-73
2022/08/06 02:11:05;;;;;;;2.95;1.20;;;;;;;21.71;34.03;102166.53;5057564;28;20037;-71
2022/08/06 02:13:55;;;;;;;2.83;1.15;;;;;;;21.68;33.85;102166.81;5039784;28;20042;-73
2022/08/06 02:16:27;;;;;;;1.98;1.10;;;;;;;21.67;34.30;102162.28;5052714;28;20102;-72
2022/08/06 02:18:57;;;;;;;2.15;1.20;;;;;;;21.64;34.00;102163.47;5061529;28;20041;-72
2022/08/06 02:21:27;;;;;;;3.15;1.27;;;;;;;21.60;33.91;102167.53;5060384;28;20357;-72
2022/08/06 02:24:03;;;;;;;3.25;1.40;;;;;;;21.58;33.90;102175.06;5048351;28;20044;-71
2022/08/06 02:26:36;;;;;;;1.95;1.05;;;;;;;21.54;33.79;102170.88;5052890;28;20041;-71
2022/08/06 02:29:09;;;;;;;1.90;1.20;;;;;;;21.53;34.12;102168.25;5037431;28;20056;-72
2022/08/06 02:31:43;;;;;;;3.00;1.40;;;;;;;21.50;34.35;102168.50;5053097;28;20150;-71
2022/08/06 02:34:20;;;;;;;2.55;1.20;;;;;;;21.46;34.59;102167.94;5053627;28;20057;-72
2022/08/06 02:37:04;;;;;;;2.67;1.30;;;;;;;21.45;34.39;102177.25;5049227;28;20538;-71
2022/08/06 02:39:37;;;;;;;2.30;1.13;;;;;;;21.44;34.14;102183.78;5044716;28;20045;-71
2022/08/06 02:42:23;;;;;;;2.85;1.40;;;;;;;21.41;34.66;102180.44;5057035;28;20497;-70
2022/08/06 02:45:02;;;;;;;2.08;1.20;;;;;;;21.39;34.83;102175.03;5067772;28;20470;-72
2022/08/06 02:47:37;;;;;;;2.63;1.17;;;;;;;21.37;34.92;102177.06;5058310;28;20056;-72
2022/08/06 02:50:30;;;;;;;2.83;1.35;;;;;;;21.35;35.16;102181.84;5046009;28;20091;-71
2022/08/06 02:53:07;;;;;;;3.47;1.50;;;;;;;21.31;35.01;102183.16;5060717;28;20040;-71
2022/08/06 02:55:55;;;;;;;2.72;1.25;;;;;;;21.30;34.83;102184.16;5050606;28;20049;-71
2022/08/06 02:58:30;;;;;;;3.47;1.45;;;;;;;21.26;35.40;102191.84;5043675;28;20046;-72
2022/08/06 03:01:10;;;;;;;2.23;1.10;;;;;;;21.23;35.55;102192.16;5056187;28;20513;-73
2022/08/06 03:03:46;;;;;;;3.58;1.42;;;;;;;21.23;35.04;102188.50;5043775;28;20053;-73
2022/08/06 03:06:25;;;;;;;2.97;1.27;;;;;;;21.19;34.73;102189.78;5063282;28;20423;-71
2022/08/06 03:08:56;;;;;;;2.95;1.40;;;;;;;21.17;34.82;102191.81;5048102;28;20068;-72
2022/08/06 03:11:25;;;;;;;3.97;1.50;;;;;;;21.13;35.29;102190.31;5062448;28;20505;-71
2022/08/06 03:14:01;;;;;;;3.10;1.35;;;;;;;21.09;35.20;102195.22;5043476;28;20102;-73
2022/08/06 03:16:32;;;;;;;4.40;1.40;;;;;;;21.07;35.37;102185.34;5052923;28;20037;-70
2022/08/06 03:19:06;;;;;;;3.10;1.50;;;;;;;21.04;35.23;102189.25;5058937;28;20048;-70
2022/08/06 03:21:56;;;;;;;2.92;1.40;;;;;;;20.98;35.01;102192.56;5043173;28;20116;-71
2022/08/06 03:24:26;;;;;;;4.20;1.50;;;;;;;20.98;35.14;102194.47;5047770;28;20067;-71
2022/08/06 03:26:58;;;;;;;2.28;1.30;;;;;;;20.97;35.34;102195.47;5050906;28;20073;-71
2022/08/06 03:29:28;;;;;;;4.57;1.50;;;;;;;20.94;35.66;102192.97;5027136;28;20132;-70
2022/08/06 03:31:57;;;;;;;2.25;1.33;;;;;;;20.92;35.58;102195.88;5049741;28;20524;-73
2022/08/06 03:34:49;;;;;;;2.83;1.73;;;;;;;20.88;35.79;102189.75;5040713;28;20056;-72
2022/08/06 03:37:21;;;;;;;3.10;1.45;;;;;;;20.87;35.99;102192.66;5059240;28;20505;-71
2022/08/06 03:40:11;;;;;;;3.10;1.48;;;;;;;20.84;35.96;102195.66;5048850;28;20037;-70
2022/08/06 03:42:39;;;;;;;2.55;1.40;;;;;;;20.81;36.06;102205.13;5050637;28;20123;-71
2022/08/06 03:45:11;;;;;;;2.45;1.30;;;;;;;20.80;35.44;102205.25;5047074;28;20049;-70
2022/08/06 03:48:02;;;;;;;3.58;1.55;;;;;;;20.77;35.65;102200.00;5055927;28;20060;-70
2022/08/06 03:50:43;;;;;;;4.60;1.58;;;;;;;20.77;36.16;102200.88;5044268;28;20102;-71
2022/08/06 03:53:19;;;;;;;2.38;1.50;;;;;;;20.73;36.32;102202.16;5043995;28;20052;-71
2022/08/06 03:55:55;;;;;;;2.85;1.58;;;;;;;20.70;36.40;102201.56;5045876;28;20094;-71
2022/08/06 03:58:27;;;;;;;2.03;1.40;;;;;;;20.67;36.19;102215.66;5051706;28;20650;-71
2022/08/06 04:01:00;;;;;;;3.17;1.70;;;;;;;20.65;36.08;102213.00;5048524;28;20132;-70
2022/08/06 04:03:32;;;;;;;3.25;1.60;;;;;;;20.61;35.99;102217.03;5054420;28;20056;-71
2022/08/06 04:06:11;;;;;;;3.10;1.90;;;;;;;20.60;36.41;102217.16;5054810;28;20060;-72
2022/08/06 04:08:43;;;;;;;3.60;1.67;;;;;;;20.54;36.25;102221.34;5057705;28;20764;-72
2022/08/06 04:11:13;;;;;;;3.42;1.35;;;;;;;20.50;36.13;102219.88;5047598;28;20564;-73
2022/08/06 04:14:02;;;;;;;3.65;1.55;;;;;;;20.45;36.12;102217.50;5062164;28;20157;-69
2022/08/06 04:16:35;;;;;;;2.67;1.30;;;;;;;20.41;36.36;102224.31;5048602;28;20047;-71
2022/08/06 04:19:05;;;;;;;4.07;1.23;;;;;;;20.40;36.40;102224.44;5052966;28;20401;-69
2022/08/06 04:21:38;;;;;;;2.50;1.35;;;;;;;20.35;37.08;102221.19;5029641;28;20087;-70
2022/08/06 04:24:26;;;;;;;2.60;1.30;;;;;;;20.32;37.00;102232.47;5042236;28;20498;-69
2022/08/06 04:26:59;;;;;;;2.13;1.30;;;;;;;20.31;36.93;102230.72;5057459;28;20052;-70
2022/08/06 04:29:38;;;;;;;2.45;1.33;;;;;;;20.27;36.57;102243.00;5041400;28;20155;-69
2022/08/06 04:32:27;;;;;;;3.70;1.60;;;;;;;20.22;36.94;102237.88;5061106;28;20036;-69
2022/08/06 04:35:02;;;;;;;3.03;1.55;;;;;;;20.18;36.75;102246.56;5035741;28;20132;-69
2022/08/06 04:37:52;;;;;;;2.78;1.55;;;;;;;20.18;37.29;102235.53;5048523;28;20110;-70
2022/08/06 04:40:22;;;;;;;2.75;1.45;;;;;;;20.14;37.34;102246.81;5044676;28;20049;-69
2022/08/06 04:43:09;;;;;;;2.83;1.55;;;;;;;20.13;37.02;102252.47;5046305;28;20039;-69
2022/08/06 04:45:39;;;;;;;2.55;1.30;;;;;;;20.14;37.22;102256.97;5025168;28;20055;-72
2022/08/06 04:48:28;;;;;;;2.83;1.20;;;;;;;20.10;37.27;102259.09;5054590;28;20064;-70
2022/08/06 04:51:07;;;;;;;3.00;1.50;;;;;;;20.09;37.51;102268.38;5057478;28;20040;-69
2022/08/06 04:53:45;;;;;;;3.35;1.55;;;;;;;20.09;37.61;102268.38;5059039;28;20044;-70
2022/08/06 04:56:24;;;;;;;2.28;1.40;;;;;;;20.08;37.71;102265.78;5056835;28;20055;-72
2022/08/06 04:59:00;;;;;;;3.10;1.38;;;;;;;20.08;37.43;102271.28;5047326;28;20040;-71
2022/08/06 05:01:28;;;;;;;2.55;1.48;;;;;;;20.08;37.74;102272.16;5051919;28;20033;-70
2022/08/06 05:04:07;;;;;;;3.72;1.70;;;;;;;20.08;37.93;102274.06;5042290;28;20045;-70
2022/08/06 05:06:49;;;;;;;2.65;1.50;;;;;;;20.11;38.33;102273.78;5030559;28;20056;-69
2022/08/06 05:09:23;;;;;;;2.90;1.67;;;;;;;20.13;38.39;102277.28;5042585;28;20049;-70
2022/08/06 05:12:16;;;;;;;2.67;1.50;;;;;;;20.12;37.97;102281.03;5044702;28;20036;-71
2022/08/06 05:14:49;;;;;;;3.90;1.67;;;;;;;20.13;38.42;102275.41;5041356;28;20064;-70
2022/08/06 05:17:25;;;;;;;3.60;1.67;;;;;;;20.16;37.92;102284.44;5052561;28;20048;-70
2022/08/06 05:20:05;;;;;;;3.70;1.90;;;;;;;20.17;38.39;102288.94;5046104;28;20044;-70
2022/08/06 05:22:41;;;;;;;3.63;1.67;;;;;;;20.19;38.30;102285.03;5059206;28;20516;-72
2022/08/06 05:25:23;;;;;;;2.47;1.50;;;;;;;20.25;38.30;102281.78;5041762;28;20084;-70
2022/08/06 05:27:55;;;;;;;3.70;1.52;;;;;;;20.31;38.61;102285.88;5033478;28;20168;-71
2022/08/06 05:30:45;;;;;;;3.25;1.90;;;;;;;20.43;38.82;102285.72;5050943;28;20049;-71
2022/08/06 05:33:23;;;;;;;3.20;1.85;;;;;;;20.57;39.32;102281.78;5040353;28;20091;-71
2022/08/06 05:35:54;;;;;;;4.43;2.17;;;;;;;20.72;38.67;102288.75;5046812;28;20171;-70
2022/08/06 05:38:30;;;;;;;3.65;1.85;;;;;;;20.97;38.71;102297.63;5055407;28;20037;-70
2022/08/06 05:41:06;;;;;;;4.22;2.00;;;;;;;21.25;38.91;102294.19;5051445;28;20052;-70
2022/08/06 05:43:36;;;;;;;3.33;1.83;;;;;;;21.51;38.56;102291.84;5049986;28;20131;-71
2022/08/06 05:46:25;;;;;;;3.65;1.73;;;;;;;21.83;37.84;102297.22;5051156;28;20050;-72
2022/08/06 05:49:05;;;;;;;3.45;2.10;;;;;;;22.18;37.99;102299.53;5047260;28;20049;-71
2022/08/06 05:51:58;;;;;;;3.53;1.90;;;;;;;22.46;37.16;102298.72;5042405;28;20512;-72
2022/08/06 05:54:36;;;;;;;4.72;2.17;;;;;;;22.72;36.90;102299.88;5050193;28;20049;-72
2022/08/06 05:57:10;;;;;;;4.03;2.10;;;;;;;22.93;36.32;102301.63;5056490;28;20087;-70
2022/08/06 05:59:49;;;;;;;5.32;2.28;;;;;;;23.15;36.15;102301.28;5040214;28;20135;-71
2022/08/06 06:02:28;;;;;;;3.35;1.80;;;;;;;23.30;35.91;102299.81;5050597;28;20051;-70
2022/08/06 06:05:00;;;;;;;4.90;2.10;;;;;;;23.46;36.20;102301.94;5063379;28;20114;-71
2022/08/06 06:07:49;;;;;;;4.47;2.00;;;;;;;23.60;35.43;102306.16;5055936;28;20128;-70
2022/08/06 06:10:39;;;;;;;4.03;1.98;;;;;;;23.74;35.51;102305.66;5050392;28;20053;-70
2022/08/06 06:13:23;;;;;;;3.75;2.00;;;;;;;23.81;35.02;102307.66;5034276;28;20048;-71
2022/08/06 06:16:16;;;;;;;4.30;1.80;;;;;;;23.90;35.20;102306.72;5048514;28;20045;-70
2022/08/06 06:19:05;;;;;;;4.32;1.75;;;;;;;23.98;34.93;102305.09;5051356;28;20402;-70
2022/08/06 06:21:52;;;;;;;5.15;1.75;;;;;;;24.03;34.50;102313.84;5054449;28;20044;-72
2022/08/06 06:24:26;;;;;;;4.05;2.03;;;;;;;24.09;34.82;102304.88;5048603;28;20051;-71
2022/08/06 06:26:58;;;;;;;4.22;1.90;;;;;;;24.13;34.74;102317.44;5033214;28;20431;-72
2022/08/06 06:29:37;;;;;;;;;;;;;;;23.87;35.29;102318.16;5047476;28;20501;-71
2022/08/06 06:32:39;;;;;;;3.47;1.40;;;;;;;24.23;34.09;102315.47;5054057;28;20007;-70
2022/08/06 06:35:13;;;;;;;;;;;;;;;24.02;34.92;102320.41;5046477;28;20052;-71
2022/08/06 06:37:47;;;;;;;4.35;1.30;;;;;;;24.43;34.20;102324.56;5051368;28;19924;-70
2022/08/06 06:40:39;;;;;;;3.80;1.30;;;;;;;24.61;34.21;102317.13;5050175;28;20045;-71
2022/08/06 06:43:40;;;;;;;3.78;1.40;;;;;;;24.82;34.11;102327.91;5034784;28;20045;-71
2022/08/06 06:46:21;;;;;;;3.20;1.15;;;;;;;25.07;33.42;102331.78;5046357;28;20048;-71
2022/08/06 06:49:15;;;;;;;3.97;1.00;;;;;;;25.32;33.38;102328.16;5054083;28;20055;-69
2022/08/06 06:52:08;;;;;;;2.90;1.17;;;;;;;25.55;33.36;102326.56;5049232;28;20040;-69
2022/08/06 06:54:43;;;;;;;2.65;1.20;;;;;;;25.81;32.99;102334.94;5055836;28;20072;-70
2022/08/06 06:57:18;;;;;;;3.53;1.13;;;;;;;26.04;32.34;102332.41;5048236;28;20051;-71
2022/08/06 06:59:53;;;;;;;2.33;1.00;;;;;;;26.24;32.50;102338.59;5043122;28;20056;-72
2022/08/06 07:02:36;;;;;;;2.70;1.10;;;;;;;26.42;32.22;102340.25;5043030;28;20501;-63
2022/08/06 07:05:07;;;;;;;2.55;0.93;;;;;;;26.59;32.00;102334.72;5063128;28;20041;-63
2022/08/06 07:07:39;;;;;;;3.65;1.02;;;;;;;26.73;31.83;102342.38;5053645;28;20131;-63
2022/08/06 07:10:14;;;;;;;1.90;0.90;;;;;;;26.82;31.00;102346.94;5050309;28;20724;-63
2022/08/06 07:12:45;;;;;;;3.38;0.80;;;;;;;26.88;30.87;102341.53;5046461;28;20045;-63
2022/08/06 07:15:22;;;;;;;2.67;0.90;;;;;;;26.94;30.72;102347.47;5046525;28;20059;-63
2022/08/06 07:17:53;;;;;;;3.05;0.70;;;;;;;26.96;30.50;102354.63;5051316;28;20064;-63
2022/08/06 07:20:43;;;;;;;2.72;0.90;;;;;;;26.95;30.65;102355.69;5042616;28;20124;-63
2022/08/06 07:23:11;;;;;;;2.80;1.20;;;;;;;26.95;30.10;102360.38;5046700;28;20203;-63
2022/08/06 07:26:00;;;;;;;1.90;0.90;;;;;;;26.90;30.05;102360.88;5048930;28;20048;-63
2022/08/06 07:28:30;;;;;;;2.13;0.90;;;;;;;26.85;29.91;102363.28;5045229;28;20048;-63
2022/08/06 07:31:04;;;;;;;1.83;0.60;;;;;;;26.78;29.57;102365.91;5027742;28;20056;-62
2022/08/06 07:33:40;;;;;;;1.77;0.80;;;;;;;26.69;29.35;102361.34;5048279;28;20402;-63
2022/08/06 07:36:32;;;;;;;1.45;0.63;;;;;;;26.55;29.44;102367.59;5031526;28;20418;-62
2022/08/06 07:39:07;;;;;;;1.60;0.50;;;;;;;26.47;29.80;102364.78;5044703;28;20076;-62
2022/08/06 07:41:42;;;;;;;2.10;0.70;;;;;;;26.36;29.98;102360.41;5047126;28;20052;-62
2022/08/06 07:44:35;;;;;;;1.73;0.52;;;;;;;26.29;29.42;102370.47;5047502;28;20414;-62
2022/08/06 07:47:28;;;;;;;2.58;0.75;;;;;;;26.19;29.23;102375.28;5046027;28;20044;-63
2022/08/06 07:50:13;;;;;;;1.60;0.50;;;;;;;26.09;28.85;102372.66;5046164;28;20045;-61
2022/08/06 07:52:42;;;;;;;2.03;0.50;;;;;;;26.01;29.74;102368.94;5046121;28;20060;-62
2022/08/06 07:55:13;;;;;;;2.78;0.80;;;;;;;25.94;29.66;102365.97;5045230;28;20056;-62
2022/08/06 07:57:43;;;;;;;1.23;0.57;;;;;;;25.86;29.49;102363.13;5042953;28;20099;-61
2022/08/06 08:00:26;;;;;;;2.00;0.60;;;;;;;25.80;29.40;102369.34;5042561;28;20071;-62
2022/08/06 08:06:22;;;;;;;1.55;0.60;;;;;;;25.71;29.16;102365.66;5042233;28;20106;-63
2022/08/06 08:08:54;;;;;;;1.15;0.50;;;;;;;25.69;29.13;102366.88;5038894;28;20042;-62
2022/08/06 08:11:25;;;;;;;0.70;0.40;;;;;;;25.67;29.44;102372.59;5047495;28;20040;-62
2022/08/06 08:14:14;;;;;;;1.02;0.55;;;;;;;25.67;29.54;102371.72;5036707;28;20041;-62
2022/08/06 08:16:45;;;;;;;1.45;0.50;;;;;;;25.68;29.17;102370.69;5041847;28;20048;-62
2022/08/06 08:19:23;;;;;;;1.45;0.52;;;;;;;25.72;28.97;102366.53;5049749;28;20045;-62
2022/08/06 08:21:56;;;;;;;1.60;0.70;;;;;;;25.73;29.48;102369.16;5043537;28;20107;-62
2022/08/06 08:24:24;;;;;;;1.55;0.63;;;;;;;25.76;29.06;102373.50;5045292;28;20045;-63
2022/08/06 08:26:53;;;;;;;1.98;0.40;;;;;;;25.81;29.54;102359.09;5051335;28;20075;-62
2022/08/06 08:29:42;;;;;;;1.88;0.80;;;;;;;25.87;29.27;102358.41;5043016;28;20060;-62
2022/08/06 08:32:24;;;;;;;1.67;0.52;;;;;;;25.92;29.38;102367.16;5046237;28;20045;-61
2022/08/06 08:34:53;;;;;;;1.13;0.38;;;;;;;26.01;29.25;102367.03;5046578;28;20044;-62
2022/08/06 08:37:25;;;;;;;0.75;0.50;;;;;;;26.10;28.85;102370.75;5041928;28;20051;-61
2022/08/06 08:40:00;;;;;;;0.75;0.40;;;;;;;26.17;28.77;102366.25;5051441;28;20051;-61
2022/08/06 08:42:32;;;;;;;1.42;0.50;;;;;;;26.27;28.42;102369.81;5043068;28;20051;-63
2022/08/06 08:45:04;;;;;;;1.92;0.50;;;;;;;26.38;28.42;102365.81;5045569;28;20051;-62
2022/08/06 08:47:50;;;;;;;1.48;0.65;;;;;;;26.48;27.91;102372.13;5046287;28;20045;-62
2022/08/06 08:50:28;;;;;;;2.78;0.70;;;;;;;26.57;27.53;102361.88;5043530;28;20478;-62
2022/08/06 08:53:03;;;;;;;0.80;0.45;;;;;;;26.63;26.87;102364.84;5045423;28;20045;-62
2022/08/06 08:55:32;;;;;;;1.48;0.60;;;;;;;26.66;27.40;102364.50;5043946;28;20072;-61
2022/08/06 08:58:21;;;;;;;0.70;0.40;;;;;;;26.71;27.22;102366.75;5044889;28;20045;-61
2022/08/06 09:01:09;;;;;;;1.33;0.55;;;;;;;26.75;27.18;102368.19;5036183;28;20498;-61
2022/08/06 09:03:58;;;;;;;2.17;0.40;;;;;;;26.75;26.99;102370.97;5040369;28;20045;-63
2022/08/06 09:06:29;;;;;;;0.85;0.38;;;;;;;26.77;26.89;102372.50;5048004;28;20045;-61
2022/08/06 09:09:03;;;;;;;0.98;0.50;;;;;;;26.79;26.61;102367.66;5043006;28;20052;-62
2022/08/06 09:11:32;;;;;;;0.98;0.40;;;;;;;26.79;27.23;102366.78;5046520;28;20071;-62
2022/08/06 09:14:21;;;;;;;1.52;0.50;;;;;;;26.81;26.97;102364.69;5044719;28;20050;-61
2022/08/06 09:16:55;;;;;;;1.58;0.50;;;;;;;26.84;27.22;102376.38;5044105;28;20120;-62
2022/08/06 09:19:24;;;;;;;1.60;0.43;;;;;;;26.88;27.05;102371.31;5042614;28;20069;-64
2022/08/06 09:22:04;;;;;;;0.32;0.30;;;;;;;26.91;27.27;102371.03;5047591;28;20041;-62
2022/08/06 09:24:37;;;;;;;0.83;0.30;;;;;;;26.98;27.00;102366.50;5038855;28;20053;-62
2022/08/06 09:27:08;;;;;;;1.42;0.50;;;;;;;27.04;26.82;102374.16;5040332;28;20029;-62
2022/08/06 09:29:57;;;;;;;0.68;0.43;;;;;;;27.10;26.81;102370.66;5040835;28;20072;-61
2022/08/06 09:32:39;;;;;;;0.98;0.30;;;;;;;27.18;25.54;102376.22;5045382;28;20099;-62
2022/08/06 09:35:24;;;;;;;0.75;0.30;;;;;;;27.22;26.09;102371.19;5055746;28;20033;-62
2022/08/06 09:38:14;;;;;;;0.77;0.40;;;;;;;27.28;26.06;102373.28;5044228;28;20091;-61
2022/08/06 09:40:59;;;;;;;;;;;;;;;27.05;26.46;102375.03;5056916;28;20098;-61
2022/08/06 09:43:28;;;;;;;0.80;0.40;;;;;;;27.36;25.88;102370.47;5049682;28;19931;-61
2022/08/06 09:46:17;;;;;;;0.93;0.40;;;;;;;27.46;25.95;102373.09;5033450;28;20156;-61
2022/08/06 09:48:58;;;;;;;0.35;0.30;;;;;;;27.53;25.42;102371.31;5043416;28;20132;-61
2022/08/06 09:51:46;;;;;;;1.50;0.52;;;;;;;27.55;25.87;102372.94;5051174;28;20058;-61
2022/08/06 09:54:20;;;;;;;0.97;0.43;;;;;;;27.61;25.77;102376.94;5050674;28;20793;-62
2022/08/06 09:56:58;;;;;;;0.70;0.40;;;;;;;27.72;24.94;102373.78;5054200;28;20298;-62
2022/08/06 09:59:27;;;;;;;0.95;0.50;;;;;;;27.78;25.59;102366.59;5046577;28;20524;-62
2022/08/06 10:02:00;;;;;;;0.40;0.40;;;;;;;27.83;25.24;102364.16;5045570;28;20041;-62
2022/08/06 10:04:29;;;;;;;0.75;0.47;;;;;;;27.90;25.23;102367.97;5049437;28;20528;-61
2022/08/06 10:07:04;;;;;;;1.70;0.65;;;;;;;27.96;25.28;102375.63;5045023;28;20086;-62
2022/08/06 10:09:37;;;;;;;1.10;0.20;;;;;;;27.99;25.09;102372.47;5047751;28;20056;-62
2022/08/06 10:12:18;;;;;;;0.95;0.40;;;;;;;28.08;24.10;102378.91;5050172;28;20115;-64
2022/08/06 10:14:54;;;;;;;0.75;0.45;;;;;;;28.09;24.21;102377.81;5047196;28;20396;-61
2022/08/06 10:17:24;;;;;;;0.75;0.30;;;;;;;28.08;24.22;102376.13;5052080;28;20049;-61
2022/08/06 10:20:07;;;;;;;1.02;0.30;;;;;;;28.11;23.50;102376.59;5065241;28;20045;-61
2022/08/06 10:22:36;;;;;;;1.40;0.50;;;;;;;28.08;23.94;102373.31;5053277;28;20040;-62
2022/08/06 10:25:10;;;;;;;0.67;0.33;;;;;;;28.07;24.29;102368.78;5054634;28;20068;-62
2022/08/06 10:27:41;;;;;;;1.10;0.38;;;;;;;28.06;23.98;102372.63;5039521;28;20033;-65
2022/08/06 10:30:11;;;;;;;0.60;0.40;;;;;;;28.10;24.03;102368.41;5048666;28;20103;-63
2022/08/06 10:32:46;;;;;;;1.83;0.57;;;;;;;28.10;23.65;102362.81;5047059;28;20048;-63
2022/08/06 10:35:17;;;;;;;0.63;0.40;;;;;;;28.11;23.87;102362.66;5045262;28;20053;-63
2022/08/06 10:37:57;;;;;;;1.33;0.65;;;;;;;28.10;23.76;102366.47;5044500;28;20052;-63
2022/08/06 10:40:31;;;;;;;0.60;0.40;;;;;;;28.12;24.11;102366.31;5040234;28;20393;-62
2022/08/06 10:43:04;;;;;;;0.63;0.40;;;;;;;28.16;23.78;102360.22;5048807;28;20120;-63
2022/08/06 10:45:36;;;;;;;1.38;0.50;;;;;;;28.19;23.51;102368.22;5039835;28;20073;-62
2022/08/06 10:48:17;;;;;;;1.27;0.60;;;;;;;28.21;23.78;102356.88;5039607;28;20049;-63
2022/08/06 10:51:06;;;;;;;0.93;0.32;;;;;;;28.26;23.99;102351.59;5038150;28;20072;-63
2022/08/06 10:53:35;;;;;;;1.48;0.60;;;;;;;28.30;24.00;102359.47;5043089;28;20041;-62
2022/08/06 10:56:26;;;;;;;0.73;0.43;;;;;;;28.35;24.00;102364.47;5047678;28;20064;-62
2022/08/06 10:59:06;;;;;;;0.93;0.50;;;;;;;28.42;23.33;102357.09;5040196;28;20047;-63
2022/08/06 11:01:44;;;;;;;0.70;0.40;;;;;;;28.49;23.10;102362.84;5043499;28;20405;-63
2022/08/06 11:04:24;;;;;;;2.45;0.50;;;;;;;28.54;22.51;102360.38;5045591;28;20079;-64
2022/08/06 11:07:25;;;;;;;1.75;0.45;;;;;;;28.58;22.85;102357.00;5042029;28;20051;-64
2022/08/06 11:10:30;;;;;;;1.23;0.40;;;;;;;28.65;23.28;102348.78;5042324;28;20179;-64
2022/08/06 11:13:09;;;;;;;1.67;0.50;;;;;;;28.72;22.35;102356.22;5045152;28;21275;-68
2022/08/06 11:15:41;;;;;;;1.60;0.40;;;;;;;28.75;23.09;102344.66;5039125;28;20071;-63
2022/08/06 11:18:28;;;;;;;1.23;0.60;;;;;;;23.81;22.90;102345.03;5124295;27;20858;-63
2022/08/06 11:20:59;;;;;;;0.80;0.52;;;;;;;23.86;23.05;102342.53;5087597;27;20402;-63
2022/08/06 11:23:32;;;;;;;1.77;0.60;;;;;;;23.92;22.84;102351.03;5077250;28;20512;-64
2022/08/06 11:26:35;;;;;;;1.67;0.47;;;;;;;23.99;23.20;102348.38;5103547;28;20050;-64
2022/08/06 11:29:12;;;;;;;0.88;0.43;;;;;;;24.02;23.42;102343.28;5091404;28;20054;-64
2022/08/06 11:31:46;;;;;;;0.93;0.57;;;;;;;24.06;23.42;102341.84;5087250;28;20051;-64
2022/08/06 11:34:44;;;;;;;0.95;0.50;;;;;;;24.10;23.03;102347.91;5101107;28;20039;-64
2022/08/06 11:37:45;;;;;;;1.42;0.65;;;;;;;24.12;22.78;102335.50;5092743;28;20714;-63
2022/08/06 11:40:56;;;;;;;1.42;0.55;;;;;;;24.10;22.54;102334.81;5082682;28;20709;-64
2022/08/06 11:43:47;;;;;;;0.63;0.40;;;;;;;24.08;22.50;102333.25;5087572;28;20420;-71
2022/08/06 11:46:33;;;;;;;1.75;0.40;;;;;;;24.06;22.36;102319.47;5092096;28;20052;-71
2022/08/06 11:49:15;;;;;;;0.77;0.28;;;;;;;24.09;22.28;102326.59;5084400;28;20052;-71
2022/08/06 11:51:50;;;;;;;1.25;0.40;;;;;;;24.10;22.94;102323.63;5087960;28;20066;-71
2022/08/06 11:54:36;;;;;;;1.70;0.47;;;;;;;24.12;22.29;102327.09;5095500;28;20044;-72
2022/08/06 11:57:23;;;;;;;0.88;0.52;;;;;;;24.13;21.71;102326.06;5098230;28;20077;-71
2022/08/06 12:00:18;;;;;;;1.67;0.32;;;;;;;24.17;21.64;102326.53;5089552;28;20060;-71
2022/08/06 12:03:06;;;;;;;1.48;0.60;;;;;;;24.18;22.10;102325.47;5092678;28;20032;-73
2022/08/06 12:05:46;;;;;;;0.88;0.52;;;;;;;24.17;22.22;102328.44;5089218;28;20044;-70
2022/08/06 12:08:29;;;;;;;0.55;0.40;;;;;;;24.18;21.87;102319.88;5089798;28;20043;-70
2022/08/06 12:11:35;;;;;;;1.83;0.50;;;;;;;24.19;21.65;102310.44;5086919;28;20610;-70
2022/08/06 12:14:06;;;;;;;1.60;0.50;;;;;;;24.20;22.08;102314.09;5082943;28;20060;-70
2022/08/06 12:16:55;;;;;;;0.73;0.50;;;;;;;24.20;21.99;102312.16;5085752;28;20400;-70
2022/08/06 12:19:30;;;;;;;0.52;0.40;;;;;;;24.21;22.04;102315.84;5093085;28;20052;-70
2022/08/06 12:22:00;;;;;;;1.40;0.50;;;;;;;24.23;21.80;102310.94;5088901;28;20048;-70
2022/08/06 12:24:32;;;;;;;1.45;0.50;;;;;;;24.22;21.27;102303.59;5102898;28;20101;-70